createdAt,value
2018-04-13T00:00:35.497Z,99875.38
2018-04-13T00:03:01.468Z,99873.98
2018-04-13T00:05:27.248Z,99870.09
2018-04-13T00:07:53.061Z,99864.53
2018-04-13T00:10:18.871Z,99865.41
2018-04-13T00:12:44.649Z,99862.35
2018-04-13T00:15:10.446Z,99873.19
2018-04-13T00:17:36.262Z,99872.70
2018-04-13T00:20:02.066Z,99855.80
2018-04-13T00:22:27.857Z,99864.99
2018-04-13T00:24:53.769Z,99871.97
2018-04-13T00:27:19.566Z,99867.31
2018-04-13T00:29:45.353Z,99861.25
2018-04-13T00:32:11.179Z,99862.58
2018-04-13T00:34:36.970Z,99853.75
2018-04-13T00:37:02.772Z,99860.66
2018-04-13T00:39:28.570Z,99860.80
2018-04-13T00:41:54.364Z,99850.56
2018-04-13T00:44:20.477Z,99849.61
2018-04-13T00:46:46.278Z,99856.92
2018-04-13T00:49:12.069Z,99851.91
2018-04-13T00:51:37.865Z,99854.55
2018-04-13T00:54:03.678Z,99854.37
2018-04-13T00:56:29.460Z,99846.25
2018-04-13T00:58:55.246Z,99844.78
2018-04-13T01:01:21.058Z,99843.13
2018-04-13T01:03:46.848Z,99848.36
2018-04-13T01:06:12.653Z,99845.81
2018-04-13T01:08:38.474Z,99850.30
2018-04-13T01:11:04.312Z,99853.29
2018-04-13T01:13:30.081Z,99859.94
2018-04-13T01:15:55.898Z,99868.38
2018-04-13T01:18:21.673Z,99862.55
2018-04-13T01:20:47.462Z,99870.69
2018-04-13T01:23:13.263Z,99874.56
2018-04-13T01:25:39.188Z,99876.78
2018-04-13T01:28:04.978Z,99876.48
2018-04-13T01:30:30.774Z,99877.99
2018-04-13T01:32:56.573Z,99896.16
2018-04-13T01:35:22.369Z,99884.16
2018-04-13T01:37:48.383Z,99889.47
2018-04-13T01:40:14.161Z,99883.31
2018-04-13T01:42:39.971Z,99885.02
2018-04-13T01:45:06.254Z,99885.97
2018-04-13T01:47:32.038Z,99884.62
2018-04-13T01:49:57.845Z,99893.56
2018-04-13T01:52:23.657Z,99894.57
2018-04-13T01:54:49.449Z,99896.92
2018-04-13T01:57:15.251Z,99891.55
2018-04-13T01:59:41.453Z,99896.23
2018-04-13T02:02:07.242Z,99895.59
2018-04-13T02:04:33.037Z,99889.95
2018-04-13T02:06:58.856Z,99871.93
2018-04-13T02:09:24.649Z,99865.16
2018-04-13T02:11:50.429Z,99827.41
2018-04-13T02:14:16.219Z,99839.20
2018-04-13T02:16:42.050Z,99834.00
2018-04-13T02:19:07.825Z,99825.34
2018-04-13T02:21:33.612Z,99820.13
2018-04-13T02:23:59.434Z,99824.23
2018-04-13T02:26:25.220Z,99832.69
2018-04-13T02:28:58.101Z,99825.42
2018-04-13T02:31:24.263Z,99823.43
2018-04-13T02:33:50.068Z,99805.61
2018-04-13T02:36:15.863Z,99811.50
2018-04-13T02:38:41.694Z,99810.59
2018-04-13T02:41:07.491Z,99811.17
2018-04-13T02:43:33.285Z,99822.01
2018-04-13T02:45:59.085Z,99828.52
2018-04-13T02:48:24.877Z,99813.51
2018-04-13T02:50:50.656Z,99811.45
2018-04-13T02:53:16.456Z,99825.20
2018-04-13T02:55:42.237Z,99832.74
2018-04-13T02:58:08.074Z,99831.95
2018-04-13T03:00:33.875Z,99833.47
2018-04-13T03:02:59.666Z,99829.84
2018-04-13T03:05:25.493Z,99828.55
2018-04-13T03:07:51.304Z,99819.14
2018-04-13T03:10:17.099Z,99828.98
2018-04-13T03:12:42.930Z,99841.89
2018-04-13T03:15:08.718Z,99837.12
2018-04-13T03:17:34.527Z,99836.41
2018-04-13T03:20:00.340Z,99831.37
2018-04-13T03:22:26.113Z,99842.06
2018-04-13T03:24:51.890Z,99842.66
2018-04-13T03:27:17.697Z,99840.73
2018-04-13T03:29:43.486Z,99842.80
2018-04-13T03:32:09.278Z,99848.72
2018-04-13T03:34:35.090Z,99857.47
2018-04-13T03:37:00.871Z,99861.67
2018-04-13T03:39:26.669Z,99853.56
2018-04-13T03:41:52.546Z,99854.78
2018-04-13T03:44:18.345Z,99858.13
2018-04-13T03:46:44.161Z,99850.46
2018-04-13T03:49:09.955Z,99854.87
2018-04-13T03:51:35.749Z,99854.53
2018-04-13T03:54:01.586Z,99854.85
2018-04-13T03:56:27.374Z,99864.58
2018-04-13T03:58:53.168Z,99859.07
2018-04-13T04:01:19.253Z,99863.84
2018-04-13T04:03:45.074Z,99852.25
2018-04-13T04:06:10.869Z,99860.85
2018-04-13T04:08:37.001Z,99861.42
2018-04-13T04:11:02.914Z,99866.02
2018-04-13T04:13:28.660Z,99866.70
2018-04-13T04:15:54.465Z,99866.91
2018-04-13T04:18:20.249Z,99865.84
2018-04-13T04:20:58.404Z,99872.06
2018-04-13T04:23:36.784Z,99873.60
2018-04-13T04:26:20.874Z,99876.03
2018-04-13T04:28:46.690Z,99880.75
2018-04-13T04:31:13.308Z,99881.30
2018-04-13T04:33:39.112Z,99887.50
2018-04-13T04:36:04.926Z,99879.72
2018-04-13T04:38:30.709Z,99893.48
2018-04-13T04:40:56.501Z,99894.18
2018-04-13T04:43:22.304Z,99906.23
2018-04-13T04:45:48.109Z,99898.31
2018-04-13T04:48:13.905Z,99898.59
2018-04-13T04:50:39.841Z,99909.72
2018-04-13T04:53:05.632Z,99908.89
2018-04-13T04:55:31.401Z,99925.23
2018-04-13T04:57:57.220Z,99921.41
2018-04-13T05:00:23.001Z,99909.48
2018-04-13T05:02:48.796Z,99925.26
2018-04-13T05:05:14.627Z,99914.45
2018-04-13T05:07:40.425Z,99914.71
2018-04-13T05:10:06.230Z,99920.11
2018-04-13T05:12:32.037Z,99920.70
2018-04-13T05:14:57.822Z,99930.38
2018-04-13T05:17:23.615Z,99918.91
2018-04-13T05:19:49.404Z,99923.85
2018-04-13T05:22:15.198Z,99937.30
2018-04-13T05:24:41.178Z,99933.77
2018-04-13T05:27:06.981Z,99924.84
2018-04-13T05:29:32.771Z,99927.98
2018-04-13T05:31:58.602Z,99930.31
2018-04-13T05:34:24.397Z,99931.78
2018-04-13T05:36:50.194Z,99930.84
2018-04-13T05:39:16.006Z,99929.91
2018-04-13T05:41:41.785Z,99937.22
2018-04-13T05:44:07.573Z,99937.38
2018-04-13T05:46:33.565Z,99948.36
2018-04-13T05:48:59.376Z,99942.83
2018-04-13T05:51:25.169Z,99929.13
2018-04-13T05:53:51.040Z,99932.50
2018-04-13T05:56:16.793Z,99933.19
2018-04-13T05:58:42.579Z,99932.50
2018-04-13T06:01:08.564Z,99930.09
2018-04-13T06:03:34.357Z,99932.16
2018-04-13T06:06:00.164Z,99933.34
2018-04-13T06:08:25.970Z,99927.02
2018-04-13T06:10:51.749Z,99930.78
2018-04-13T06:13:17.549Z,99936.58
2018-04-13T06:15:43.329Z,99932.13
2018-04-13T06:18:09.123Z,99934.24
2018-04-13T06:20:34.952Z,99935.03
2018-04-13T06:23:00.759Z,99936.48
2018-04-13T06:25:26.538Z,99931.03
2018-04-13T06:27:52.355Z,99936.10
2018-04-13T06:30:18.204Z,99936.10
2018-04-13T06:32:44.211Z,99939.31
2018-04-13T06:35:10.029Z,99949.09
2018-04-13T06:37:35.821Z,99949.95
2018-04-13T06:40:01.620Z,99947.61
2018-04-13T06:42:27.451Z,99941.70
2018-04-13T06:44:53.252Z,99951.48
2018-04-13T06:47:19.046Z,99944.77
2018-04-13T06:49:44.830Z,99954.15
2018-04-13T06:52:10.621Z,99954.59
2018-04-13T06:54:36.435Z,99960.84
2018-04-13T06:57:02.303Z,99962.99
2018-04-13T06:59:28.118Z,99973.04
2018-04-13T07:01:53.969Z,99965.64
2018-04-13T07:04:19.767Z,99962.60
2018-04-13T07:06:45.597Z,99965.61
2018-04-13T07:09:11.410Z,99972.42
2018-04-13T07:11:37.213Z,99968.09
2018-04-13T07:14:03.022Z,99970.91
2018-04-13T07:16:29.049Z,99974.78
2018-04-13T07:18:54.840Z,99970.41
2018-04-13T07:21:20.617Z,99973.78
2018-04-13T07:23:46.699Z,99975.39
2018-04-13T07:26:13.559Z,99976.22
2018-04-13T07:28:39.353Z,99975.02
2018-04-13T07:31:05.167Z,99983.48
2018-04-13T07:33:31.242Z,99973.84
2018-04-13T07:35:57.069Z,99984.70
2018-04-13T07:38:24.803Z,99987.13
2018-04-13T07:40:50.623Z,99994.08
2018-04-13T07:43:16.425Z,99990.70
2018-04-13T07:45:42.690Z,99986.00
2018-04-13T07:48:08.380Z,99989.84
2018-04-13T07:50:35.428Z,99986.05
2018-04-13T07:53:01.401Z,99985.83
2018-04-13T07:55:28.129Z,99994.33
2018-04-13T07:57:54.536Z,99992.33
2018-04-13T08:00:21.190Z,99989.79
2018-04-13T08:02:47.041Z,99998.23
2018-04-13T08:05:13.469Z,99991.39
2018-04-13T08:07:39.818Z,99998.75
2018-04-13T08:10:06.191Z,99994.94
2018-04-13T08:12:32.463Z,99991.76
2018-04-13T08:14:58.935Z,99991.11
2018-04-13T08:17:25.645Z,99987.28
2018-04-13T08:19:51.658Z,99989.90
2018-04-13T08:22:17.939Z,99983.64
2018-04-13T08:24:44.050Z,99982.52
2018-04-13T08:27:09.894Z,99988.40
2018-04-13T08:29:35.693Z,99997.44
2018-04-13T08:32:01.524Z,99985.34
2018-04-13T08:34:27.347Z,99990.73
2018-04-13T08:36:53.149Z,99989.57
2018-04-13T08:39:18.984Z,99993.22
2018-04-13T08:41:44.791Z,99989.47
2018-04-13T08:44:10.582Z,99992.30
2018-04-13T08:46:36.389Z,99993.73
2018-04-13T08:49:02.361Z,99992.86
2018-04-13T08:51:28.050Z,99993.25
2018-04-13T08:53:53.863Z,99991.73
2018-04-13T08:56:19.677Z,99998.54
2018-04-13T08:58:45.473Z,99987.09
2018-04-13T09:01:11.638Z,99993.19
2018-04-13T09:03:37.454Z,99995.63
2018-04-13T09:06:03.281Z,99994.27
2018-04-13T09:08:29.888Z,99998.24
2018-04-13T09:10:55.677Z,99996.05
2018-04-13T09:13:21.485Z,99997.28
2018-04-13T09:15:47.413Z,100003.27
2018-04-13T09:18:13.206Z,100010.25
2018-04-13T09:20:39.017Z,100008.73
2018-04-13T09:23:04.822Z,100017.52
2018-04-13T09:25:30.625Z,100015.64
2018-04-13T09:27:56.471Z,100012.63
2018-04-13T09:30:22.237Z,100012.02
2018-04-13T09:32:48.054Z,100013.28
2018-04-13T09:35:13.899Z,100020.08
2018-04-13T09:37:39.937Z,100020.86
2018-04-13T09:40:05.852Z,100027.41
2018-04-13T09:42:31.677Z,100031.83
2018-04-13T09:44:57.492Z,100034.81
2018-04-13T09:47:23.301Z,100041.12
2018-04-13T09:49:49.110Z,100039.63
2018-04-13T09:52:15.234Z,100042.73
2018-04-13T09:54:41.055Z,100044.38
2018-04-13T09:57:07.792Z,100040.95
2018-04-13T09:59:33.813Z,100042.22
2018-04-13T10:02:00.574Z,100047.42
2018-04-13T10:04:32.554Z,100032.77
2018-04-13T10:06:58.366Z,100041.94
2018-04-13T10:09:24.201Z,100045.42
2018-04-13T10:11:50.090Z,100050.19
2018-04-13T10:14:15.924Z,100065.08
2018-04-13T10:16:42.043Z,100061.42
2018-04-13T10:19:07.860Z,100072.42
2018-04-13T10:21:33.686Z,100078.42
2018-04-13T10:23:59.556Z,100075.72
2018-04-13T10:26:25.363Z,100069.48
2018-04-13T10:28:51.227Z,100066.14
2018-04-13T10:31:17.054Z,100071.38
2018-04-13T10:33:42.894Z,100078.81
2018-04-13T10:36:09.755Z,100083.27
2018-04-13T10:38:35.591Z,100078.44
2018-04-13T10:41:01.859Z,100079.23
2018-04-13T10:43:27.752Z,100089.94
2018-04-13T10:45:53.669Z,100081.14
2018-04-13T10:48:19.582Z,100090.88
2018-04-13T10:50:45.400Z,100088.92
2018-04-13T10:53:11.201Z,100087.21
2018-04-13T10:55:37.376Z,100089.39
2018-04-13T10:58:03.184Z,100089.81
2018-04-13T11:00:28.975Z,100094.50
2018-04-13T11:02:54.797Z,100100.56
2018-04-13T11:05:20.635Z,100086.45
2018-04-13T11:07:46.445Z,100088.28
2018-04-13T11:10:12.280Z,100081.31
2018-04-13T11:12:38.114Z,100073.48
2018-04-13T11:15:03.943Z,100065.22
2018-04-13T11:17:29.782Z,100061.01
2018-04-13T11:19:55.581Z,100045.84
2018-04-13T11:22:21.378Z,100035.06
2018-04-13T11:24:47.215Z,100034.14
2018-04-13T11:27:13.017Z,100027.75
2018-04-13T11:29:39.637Z,100032.20
2018-04-13T11:32:05.488Z,100027.77
2018-04-13T11:34:31.305Z,100032.42
2018-04-13T11:36:57.127Z,100028.52
2018-04-13T11:39:23.353Z,100027.11
2018-04-13T11:41:49.159Z,100030.13
2018-04-13T11:44:15.461Z,100034.55
2018-04-13T11:46:41.281Z,100033.94
2018-04-13T11:49:07.804Z,100022.27
2018-04-13T11:51:33.877Z,100014.16
2018-04-13T11:53:59.679Z,100000.73
2018-04-13T11:56:25.702Z,100006.97
2018-04-13T11:58:51.522Z,100014.86
2018-04-13T12:01:17.667Z,100023.45
2018-04-13T12:03:43.494Z,100031.64
2018-04-13T12:06:09.310Z,100041.25
2018-04-13T12:08:35.108Z,100042.08
2018-04-13T12:11:00.925Z,100050.77
2018-04-13T12:13:26.718Z,100057.22
2018-04-13T12:15:52.586Z,100057.28
2018-04-13T12:18:19.014Z,100070.46
2018-04-13T12:20:44.861Z,100066.09
2018-04-13T12:23:11.682Z,100076.19
2018-04-13T12:25:37.504Z,100074.67
2018-04-13T12:28:03.350Z,100074.70
2018-04-13T12:30:29.166Z,100067.91
2018-04-13T12:32:54.994Z,100076.95
2018-04-13T12:35:20.803Z,100080.45
2018-04-13T12:37:46.670Z,100082.05
2018-04-13T12:40:12.477Z,100087.13
2018-04-13T12:42:38.278Z,100083.45
2018-04-13T12:45:04.833Z,100081.66
2018-04-13T12:47:30.651Z,100086.31
2018-04-13T12:49:56.465Z,100091.70
2018-04-13T12:52:22.369Z,100089.20
2018-04-13T12:54:48.370Z,100090.63
2018-04-13T12:57:14.406Z,100085.25
2018-04-13T12:59:40.300Z,100084.23
2018-04-13T13:02:06.087Z,100083.67
2018-04-13T13:04:31.887Z,100082.95
2018-04-13T13:06:57.693Z,100086.11
2018-04-13T13:09:23.487Z,100084.71
2018-04-13T13:11:49.355Z,100085.38
2018-04-13T13:14:15.149Z,100084.56
2018-04-13T13:16:40.952Z,100082.31
2018-04-13T13:19:06.743Z,100081.96
2018-04-13T13:21:32.567Z,100087.35
2018-04-13T13:23:58.744Z,100083.02
2018-04-13T13:26:24.518Z,100082.29
2018-04-13T13:28:50.315Z,100082.98
2018-04-13T13:31:16.116Z,100082.28
2018-04-13T13:33:41.907Z,100082.12
2018-04-13T13:36:07.694Z,100080.52
2018-04-13T13:38:33.544Z,100078.99
2018-04-13T13:40:59.333Z,100080.67
2018-04-13T13:43:25.143Z,100082.52
2018-04-13T13:45:50.925Z,100086.80
2018-04-13T13:48:16.718Z,100079.38
2018-04-13T13:50:42.540Z,100078.73
2018-04-13T13:53:08.332Z,100080.45
2018-04-13T13:55:34.141Z,100086.55
2018-04-13T13:57:59.942Z,100084.52
2018-04-13T14:00:25.747Z,100087.30
2018-04-13T14:02:51.574Z,100080.91
2018-04-13T14:05:17.370Z,100086.91
2018-04-13T14:07:43.150Z,100093.75
2018-04-13T14:10:09.179Z,100093.45
2018-04-13T14:12:34.962Z,100096.06
2018-04-13T14:15:00.761Z,100108.52
2018-04-13T14:17:26.602Z,100105.65
2018-04-13T14:19:52.385Z,100101.89
2018-04-13T14:22:18.195Z,100101.97
2018-04-13T14:24:43.997Z,100097.73
2018-04-13T14:27:09.798Z,100098.91
2018-04-13T14:29:35.590Z,100096.27
2018-04-13T14:32:01.404Z,100093.91
2018-04-13T14:34:27.188Z,100085.97
2018-04-13T14:36:52.987Z,100084.72
2018-04-13T14:39:18.799Z,100087.92
2018-04-13T14:41:44.592Z,100082.96
2018-04-13T14:44:10.397Z,100074.78
2018-04-13T14:46:36.198Z,100062.42
2018-04-13T14:49:02.033Z,100058.86
2018-04-13T14:51:27.818Z,100060.41
2018-04-13T14:53:53.803Z,100064.13
2018-04-13T14:56:19.605Z,100057.95
2018-04-13T14:58:45.419Z,100056.33
2018-04-13T15:01:11.221Z,100058.56
2018-04-13T15:03:37.027Z,100052.67
2018-04-13T15:06:02.829Z,100036.11
2018-04-13T15:08:28.858Z,100048.89
2018-04-13T15:10:54.658Z,100044.55
2018-04-13T15:13:20.460Z,100055.36
2018-04-13T15:15:46.386Z,100053.78
2018-04-13T15:18:12.169Z,100048.73
2018-04-13T15:20:37.957Z,100043.64
2018-04-13T15:23:04.135Z,100042.92
2018-04-13T15:25:29.969Z,100042.68
2018-04-13T15:27:55.780Z,100050.70
2018-04-13T15:30:21.799Z,100043.23
2018-04-13T15:32:47.602Z,100039.01
2018-04-13T15:35:13.397Z,100041.23
2018-04-13T15:37:39.206Z,100044.06
2018-04-13T15:40:05.024Z,100035.53
2018-04-13T15:42:30.810Z,100045.84
2018-04-13T15:44:56.625Z,100047.52
2018-04-13T15:47:22.719Z,100046.45
2018-04-13T15:49:48.505Z,100039.70
2018-04-13T15:52:14.682Z,100048.27
2018-04-13T15:54:40.474Z,100041.32
2018-04-13T15:57:06.265Z,100052.60
2018-04-13T15:59:32.058Z,100047.87
2018-04-13T16:01:57.870Z,100055.97
2018-04-13T16:04:23.655Z,100056.68
2018-04-13T16:06:49.511Z,100069.83
2018-04-13T16:09:15.275Z,100072.03
2018-04-13T16:11:41.061Z,100070.30
2018-04-13T16:14:06.874Z,100077.78
2018-04-13T16:16:32.690Z,100078.99
2018-04-13T16:18:58.485Z,100079.11
2018-04-13T16:21:24.273Z,100087.09
2018-04-13T16:23:50.073Z,100094.55
2018-04-13T16:26:15.881Z,100089.67
2018-04-13T16:28:41.660Z,100091.82
2018-04-13T16:31:07.464Z,100080.66
2018-04-13T16:33:33.254Z,100090.35
2018-04-13T16:35:59.045Z,100091.87
2018-04-13T16:38:24.868Z,100090.31
2018-04-13T16:40:50.687Z,100080.66
2018-04-13T16:43:16.530Z,100091.83
2018-04-13T16:45:42.328Z,100101.03
2018-04-13T16:48:08.112Z,100092.87
2018-04-13T16:50:33.952Z,100099.69
2018-04-13T16:53:00.061Z,100097.17
2018-04-13T16:55:25.886Z,100095.08
2018-04-13T16:57:51.721Z,100094.58
2018-04-13T17:00:18.445Z,100078.29
2018-04-13T17:02:44.246Z,100078.83
2018-04-13T17:05:10.587Z,100076.80
2018-04-13T17:07:36.432Z,100072.31
2018-04-13T17:10:02.280Z,100075.47
2018-04-13T17:12:28.089Z,100068.70
2018-04-13T17:14:54.500Z,100061.25
2018-04-13T17:17:20.327Z,100069.42
2018-04-13T17:19:46.245Z,100070.02
2018-04-13T17:22:12.076Z,100069.44
2018-04-13T17:24:37.898Z,100074.17
2018-04-13T17:27:03.844Z,100073.12
2018-04-13T17:29:30.407Z,100075.70
2018-04-13T17:31:56.370Z,100076.64
2018-04-13T17:34:22.220Z,100079.58
2018-04-13T17:36:48.041Z,100083.87
2018-04-13T17:39:13.874Z,100077.49
2018-04-13T17:41:39.721Z,100085.69
2018-04-13T17:44:06.355Z,100079.85
2018-04-13T17:46:32.176Z,100081.19
2018-04-13T17:48:57.990Z,100087.13
2018-04-13T17:51:23.805Z,100089.42
2018-04-13T17:53:49.623Z,100088.14
2018-04-13T17:56:15.449Z,100098.85
2018-04-13T17:58:41.346Z,100093.34
2018-04-13T18:01:07.298Z,100100.30
2018-04-13T18:03:33.098Z,100102.42
2018-04-13T18:05:58.903Z,100096.33
2018-04-13T18:08:24.727Z,100095.53
2018-04-13T18:10:50.551Z,100094.28
2018-04-13T18:13:16.467Z,100097.36
2018-04-13T18:15:42.285Z,100108.61
2018-04-13T18:18:08.518Z,100128.16
2018-04-13T18:20:34.320Z,100165.07
2018-04-13T18:23:00.223Z,100147.27
2018-04-13T18:25:26.034Z,100172.37
2018-04-13T18:27:51.838Z,100178.48
2018-04-13T18:30:17.633Z,100172.66
2018-04-13T18:32:43.500Z,100172.73
2018-04-13T18:35:09.764Z,100163.13
2018-04-13T18:37:35.632Z,100168.58
2018-04-13T18:40:01.454Z,100166.47
2018-04-13T18:42:27.294Z,100165.13
2018-04-13T18:44:54.099Z,100164.51
2018-04-13T18:47:19.995Z,100163.71
2018-04-13T18:49:46.233Z,100140.99
2018-04-13T18:52:12.244Z,100147.28
2018-04-13T18:54:38.331Z,100138.39
2018-04-13T18:57:04.161Z,100148.94
2018-04-13T18:59:29.973Z,100133.05
2018-04-13T19:01:55.802Z,100135.24
2018-04-13T19:04:21.602Z,100149.65
2018-04-13T19:06:47.441Z,100166.84
2018-04-13T19:09:13.547Z,100175.11
2018-04-13T19:11:39.369Z,100170.37
2018-04-13T19:14:05.262Z,100177.73
2018-04-13T19:16:31.185Z,100187.70
2018-04-13T19:18:57.761Z,100181.06
2018-04-13T19:21:23.717Z,100185.02
2018-04-13T19:23:49.571Z,100185.55
2018-04-13T19:26:15.372Z,100197.88
2018-04-13T19:28:41.208Z,100208.16
2018-04-13T19:31:07.035Z,100186.80
2018-04-13T19:33:33.553Z,100181.43
2018-04-13T19:35:59.346Z,100172.30
2018-04-13T19:38:25.147Z,100158.92
2018-04-13T19:40:51.160Z,100151.41
2018-04-13T19:43:17.360Z,100144.87
2018-04-13T19:45:43.228Z,100159.13
2018-04-13T19:48:09.066Z,100169.05
2018-04-13T19:50:34.876Z,100176.08
2018-04-13T19:53:00.696Z,100179.84
2018-04-13T19:55:26.502Z,100187.47
2018-04-13T19:57:52.325Z,100181.70
2018-04-13T20:00:18.239Z,100164.59
2018-04-13T20:02:44.064Z,100163.26
2018-04-13T20:05:09.871Z,100174.03
2018-04-13T20:07:35.704Z,100183.66
2018-04-13T20:10:01.550Z,100194.77
2018-04-13T20:12:27.341Z,100186.86
2018-04-13T20:14:53.153Z,100200.95
2018-04-13T20:19:51.569Z,100204.13
2018-04-13T20:22:17.370Z,100212.50
2018-04-13T20:24:43.151Z,100232.11
2018-04-13T20:27:09.124Z,100224.98
2018-04-13T20:29:34.960Z,100210.64
2018-04-13T20:32:00.764Z,100210.02
2018-04-13T20:34:26.680Z,100213.37
2018-04-13T20:36:52.520Z,100218.27
2018-04-13T20:39:18.366Z,100209.81
2018-04-13T20:41:44.213Z,100210.48
2018-04-13T20:44:10.075Z,100214.75
2018-04-13T20:46:36.566Z,100225.89
2018-04-13T20:49:02.768Z,100218.81
2018-04-13T20:51:28.611Z,100225.55
2018-04-13T20:53:54.701Z,100233.27
2018-04-13T20:56:20.567Z,100240.98
2018-04-13T20:58:46.730Z,100235.64
2018-04-13T21:01:12.700Z,100243.49
2018-04-13T21:03:38.576Z,100233.97
2018-04-13T21:06:04.501Z,100220.98
2018-04-13T21:08:30.353Z,100223.73
2018-04-13T21:10:56.181Z,100220.81
2018-04-13T21:13:21.998Z,100225.73
2018-04-13T21:15:47.785Z,100223.83
2018-04-13T21:18:13.569Z,100217.22
2018-04-13T21:20:39.701Z,100229.58
2018-04-13T21:23:05.498Z,100233.64
2018-04-13T21:25:31.290Z,100234.63
2018-04-13T21:27:57.096Z,100235.95
2018-04-13T21:30:22.913Z,100233.14
2018-04-13T21:32:48.689Z,100229.92
2018-04-13T21:35:14.489Z,100221.84
2018-04-13T21:37:40.300Z,100228.95
2018-04-13T21:40:06.088Z,100242.52
2018-04-13T21:42:31.940Z,100242.30
2018-04-13T21:44:57.779Z,100241.58
2018-04-13T21:47:23.571Z,100240.47
2018-04-13T21:49:49.676Z,100262.11
2018-04-13T21:52:15.443Z,100248.98
2018-04-13T21:54:41.228Z,100244.63
2018-04-13T21:57:07.033Z,100251.66
2018-04-13T21:59:32.823Z,100251.47
2018-04-13T22:01:58.611Z,100247.24
2018-04-13T22:04:24.631Z,100250.64
2018-04-13T22:06:50.435Z,100249.59
2018-04-13T22:09:16.221Z,100245.98
2018-04-13T22:11:42.037Z,100243.20
2018-04-13T22:14:20.241Z,100245.85
2018-04-13T22:16:46.051Z,100246.23
2018-04-13T22:19:11.849Z,100241.23
2018-04-13T22:21:37.639Z,100246.30
2018-04-13T22:24:03.468Z,100245.55
2018-04-13T22:26:29.270Z,100236.96
2018-04-13T22:28:55.159Z,100250.22
2018-04-13T22:31:20.961Z,100257.06
2018-04-13T22:33:46.752Z,100255.77
2018-04-13T22:36:12.534Z,100255.91
2018-04-13T22:38:38.357Z,100259.31
2018-04-13T22:41:04.179Z,100269.08
2018-04-13T22:43:29.965Z,100266.11
2018-04-13T22:45:55.767Z,100265.03
2018-04-13T22:48:21.569Z,100263.20
2018-04-13T22:50:47.370Z,100262.43
2018-04-13T22:53:13.164Z,100276.84
2018-04-13T22:55:38.971Z,100280.66
2018-04-13T22:58:04.770Z,100298.20
2018-04-13T23:00:30.561Z,100299.30
2018-04-13T23:02:56.365Z,100308.06
2018-04-13T23:05:22.153Z,100319.70
2018-04-13T23:07:47.948Z,100328.72
2018-04-13T23:10:13.787Z,100337.67
2018-04-13T23:12:39.582Z,100338.45
2018-04-13T23:15:05.383Z,100347.25
2018-04-13T23:17:31.184Z,100355.22
2018-04-13T23:19:56.966Z,100354.41
2018-04-13T23:22:35.094Z,100362.53
2018-04-13T23:25:00.889Z,100358.48
2018-04-13T23:27:26.698Z,100358.69
2018-04-13T23:29:52.492Z,100355.14
2018-04-13T23:32:18.278Z,100356.58
2018-04-13T23:34:44.097Z,100357.11
2018-04-13T23:37:09.892Z,100362.09
2018-04-13T23:39:35.667Z,100358.30
2018-04-13T23:42:01.467Z,100359.73
2018-04-13T23:44:27.265Z,100368.46
2018-04-13T23:46:53.048Z,100373.41
2018-04-13T23:49:18.848Z,100367.37
2018-04-13T23:51:44.909Z,100379.35
2018-04-13T23:54:10.701Z,100369.94
2018-04-13T23:56:36.869Z,100383.03
2018-04-13T23:59:02.686Z,100394.37
